Time;durP1;ratioP1;P1;durP2;ratioP2;P2;SDS_P1;SDS_P2;PMS_P1;PMS_P2;Temp;Humidity;BMP_temperature;BMP_pressure;BME280_temperature;BME280_humidity;BME280_pressure;Samples;Min_cycle;Max_cycle;Signal;HPM_P1;HPM_P2
2023/06/07 00:01:25;;;;;;;8.63;4.70;;;17.60;99.90;;;;;;5040592;28;20465;-75
2023/06/07 00:03:52;;;;;;;6.50;5.57;;;17.60;99.90;;;;;;5047346;28;20951;-75
2023/06/07 00:06:19;;;;;;;6.50;5.07;;;17.60;99.90;;;;;;5045057;28;20449;-74
2023/06/07 00:08:46;;;;;;;11.83;5.77;;;17.60;99.90;;;;;;5046086;28;20485;-76
2023/06/07 00:11:12;;;;;;;9.17;5.40;;;17.70;99.90;;;;;;5066851;28;20505;-75
2023/06/07 00:13:39;;;;;;;10.33;5.13;;;17.70;99.90;;;;;;5039328;28;21067;-75
2023/06/07 00:16:05;;;;;;;8.53;5.43;;;17.70;99.90;;;;;;5039165;28;20432;-75
2023/06/07 00:18:33;;;;;;;8.17;5.30;;;17.70;99.90;;;;;;5044889;28;20498;-75
2023/06/07 00:21:00;;;;;;;8.60;5.23;;;17.80;99.90;;;;;;5043989;28;20831;-75
2023/06/07 00:23:28;;;;;;;5.70;4.83;;;17.70;99.90;;;;;;5053512;28;20846;-75
2023/06/07 00:25:56;;;;;;;7.00;4.70;;;17.70;99.90;;;;;;5046921;28;20443;-75
2023/06/07 00:28:23;;;;;;;10.33;5.13;;;17.70;99.90;;;;;;5039374;28;20900;-75
2023/06/07 00:30:50;;;;;;;7.90;5.30;;;17.80;99.90;;;;;;5041344;28;20506;-76
2023/06/07 00:33:17;;;;;;;11.17;5.27;;;17.70;99.90;;;;;;5041039;28;20462;-75
2023/06/07 00:35:45;;;;;;;10.77;5.20;;;17.70;99.90;;;;;;5050879;28;20496;-75
2023/06/07 00:38:11;;;;;;;26.43;5.13;;;17.70;99.90;;;;;;5049748;28;20446;-74
2023/06/07 00:40:38;;;;;;;11.20;5.30;;;17.70;99.90;;;;;;5042062;28;20970;-75
2023/06/07 00:43:04;;;;;;;13.23;4.70;;;17.70;99.90;;;;;;5037047;28;20505;-75
2023/06/07 00:45:31;;;;;;;7.47;5.27;;;17.60;99.90;;;;;;5043719;28;20480;-75
2023/06/07 00:47:58;;;;;;;6.30;5.30;;;17.60;99.90;;;;;;5045726;28;20427;-76
2023/06/07 00:50:25;;;;;;;8.93;5.50;;;17.60;99.90;;;;;;5049283;28;20456;-75
2023/06/07 00:52:53;;;;;;;5.83;5.17;;;17.50;99.90;;;;;;5046904;28;20459;-76
2023/06/07 00:55:20;;;;;;;11.10;5.07;;;17.50;99.90;;;;;;5039562;28;20453;-75
2023/06/07 00:57:47;;;;;;;7.27;5.30;;;17.50;99.90;;;;;;5040752;28;20502;-75
2023/06/07 01:00:15;;;;;;;7.40;5.10;;;17.40;99.90;;;;;;5042269;28;21034;-76
2023/06/07 01:02:46;;;;;;;10.00;5.83;;;17.30;99.90;;;;;;5048884;28;20522;-76
2023/06/07 01:05:13;;;;;;;9.40;5.37;;;17.40;99.90;;;;;;5048003;28;20484;-75
2023/06/07 01:07:39;;;;;;;7.80;5.33;;;17.30;99.90;;;;;;5041017;28;20850;-75
2023/06/07 01:10:09;;;;;;;10.47;5.43;;;17.30;99.90;;;;;;5051387;28;20948;-75
2023/06/07 01:12:36;;;;;;;8.20;4.90;;;17.30;99.90;;;;;;5043317;28;20463;-75
2023/06/07 01:15:04;;;;;;;9.43;5.80;;;17.30;99.90;;;;;;5046637;28;20518;-75
2023/06/07 01:17:32;;;;;;;6.30;5.70;;;17.30;99.90;;;;;;5049720;28;20456;-75
2023/06/07 01:20:04;;;;;;;8.77;5.40;;;17.30;99.90;;;;;;5050006;28;20522;-75
2023/06/07 01:22:33;;;;;;;14.50;5.87;;;17.30;99.90;;;;;;5038879;28;20459;-75
2023/06/07 01:25:01;;;;;;;9.53;5.70;;;17.30;99.90;;;;;;5039799;28;20477;-74
2023/06/07 01:27:30;;;;;;;8.30;5.50;;;17.40;99.90;;;;;;5044379;28;20580;-75
2023/06/07 01:29:59;;;;;;;11.83;5.80;;;17.30;99.90;;;;;;5048150;28;20904;-75
2023/06/07 01:32:26;;;;;;;8.00;6.13;;;17.30;99.90;;;;;;5045701;28;20444;-75
2023/06/07 01:34:54;;;;;;;6.80;5.40;;;17.30;99.90;;;;;;5039900;28;20456;-75
2023/06/07 01:37:22;;;;;;;7.67;6.10;;;17.20;99.90;;;;;;5038999;28;20918;-75
2023/06/07 01:39:51;;;;;;;13.00;6.37;;;17.10;99.90;;;;;;5041845;28;20469;-74
2023/06/07 01:42:19;;;;;;;9.80;5.73;;;16.90;99.90;;;;;;5047918;28;20480;-75
2023/06/07 01:44:47;;;;;;;9.83;6.03;;;16.90;99.90;;;;;;5059451;28;20435;-75
2023/06/07 01:47:14;;;;;;;8.10;5.40;;;16.90;99.90;;;;;;5045861;28;20458;-75
2023/06/07 01:49:41;;;;;;;8.50;6.10;;;16.80;99.90;;;;;;5042668;28;20568;-74
2023/06/07 01:52:08;;;;;;;7.57;5.67;;;16.90;99.90;;;;;;5046326;28;20480;-74
2023/06/07 01:54:35;;;;;;;7.67;5.60;;;16.90;99.90;;;;;;5056790;28;20506;-74
2023/06/07 01:57:16;;;;;;;8.53;5.97;;;17.00;99.90;;;;;;5054653;28;20453;-75
2023/06/07 01:59:53;;;;;;;10.87;6.10;;;17.00;99.90;;;;;;5043525;28;20460;-75
2023/06/07 02:02:28;;;;;;;8.07;6.10;;;17.10;99.90;;;;;;5044605;28;20997;-74
2023/06/07 02:04:58;;;;;;;9.17;5.60;;;17.10;99.90;;;;;;5039808;28;20452;-75
2023/06/07 02:07:29;;;;;;;7.77;6.00;;;17.10;99.90;;;;;;5047950;28;21019;-74
2023/06/07 02:09:58;;;;;;;8.63;5.43;;;17.10;99.90;;;;;;5043546;28;20452;-75
2023/06/07 02:12:24;;;;;;;7.87;6.17;;;17.10;99.90;;;;;;5043651;28;20534;-75
2023/06/07 02:14:53;;;;;;;7.57;5.57;;;17.10;99.90;;;;;;5035778;28;20463;-75
2023/06/07 02:17:19;;;;;;;6.60;5.27;;;17.10;99.90;;;;;;5039976;28;20974;-75
2023/06/07 02:19:46;;;;;;;8.03;5.20;;;17.10;99.90;;;;;;5042963;28;20419;-75
2023/06/07 02:22:13;;;;;;;5.73;5.23;;;17.10;99.90;;;;;;5048797;28;20870;-74
2023/06/07 02:24:41;;;;;;;8.10;5.43;;;17.10;99.90;;;;;;5049150;28;20810;-74
2023/06/07 02:27:07;;;;;;;6.67;5.37;;;17.00;99.90;;;;;;5042353;28;20469;-74
2023/06/07 02:29:34;;;;;;;7.33;5.80;;;17.00;99.90;;;;;;5038789;28;20457;-74
2023/06/07 02:32:02;;;;;;;8.07;5.50;;;17.00;99.90;;;;;;5038299;28;20477;-74
2023/06/07 02:34:30;;;;;;;12.43;6.10;;;17.00;99.90;;;;;;5045253;28;20840;-74
2023/06/07 02:36:57;;;;;;;8.77;5.37;;;17.00;99.90;;;;;;5042578;28;20471;-75
2023/06/07 02:39:23;;;;;;;7.17;5.23;;;17.00;99.90;;;;;;5042771;28;20427;-75
2023/06/07 02:41:50;;;;;;;6.80;5.40;;;17.00;99.90;;;;;;5040566;28;20546;-77
2023/06/07 02:44:16;;;;;;;5.87;4.87;;;17.00;99.90;;;;;;5042647;28;20454;-75
2023/06/07 02:46:43;;;;;;;9.43;5.47;;;17.00;99.90;;;;;;5045230;28;20478;-74
2023/06/07 02:49:11;;;;;;;10.13;5.40;;;16.90;99.90;;;;;;5046687;28;20514;-75
2023/06/07 02:51:38;;;;;;;8.93;5.40;;;16.90;99.90;;;;;;5041238;28;20506;-74
2023/06/07 02:54:09;;;;;;;9.57;5.50;;;16.90;99.90;;;;;;5046383;28;20456;-75
2023/06/07 02:56:36;;;;;;;7.37;5.80;;;16.90;99.90;;;;;;5047516;28;20463;-75
2023/06/07 02:59:02;;;;;;;7.60;5.80;;;16.90;99.90;;;;;;5041961;28;20452;-75
2023/06/07 03:01:33;;;;;;;12.10;6.57;;;16.80;99.90;;;;;;5044392;28;20463;-74
2023/06/07 03:03:59;;;;;;;8.70;5.40;;;16.80;99.90;;;;;;5049652;28;20940;-74
2023/06/07 03:06:29;;;;;;;8.10;6.20;;;16.80;99.90;;;;;;5035360;28;20848;-75
2023/06/07 03:08:56;;;;;;;6.90;5.87;;;16.90;99.90;;;;;;5042944;28;20960;-75
2023/06/07 03:11:22;;;;;;;9.43;5.70;;;16.90;99.90;;;;;;5040382;28;20466;-75
2023/06/07 03:13:49;;;;;;;12.33;6.30;;;16.80;99.90;;;;;;5046091;28;20460;-74
2023/06/07 03:16:16;;;;;;;9.17;6.07;;;16.90;99.90;;;;;;5046451;28;20435;-74
2023/06/07 03:18:43;;;;;;;8.07;5.80;;;16.90;99.90;;;;;;5045652;28;20948;-74
2023/06/07 03:21:09;;;;;;;12.33;7.70;;;16.90;99.90;;;;;;5031897;28;20486;-74
2023/06/07 03:23:37;;;;;;;7.33;6.30;;;16.90;99.90;;;;;;5047056;28;20493;-75
2023/06/07 03:26:05;;;;;;;6.47;5.60;;;16.90;99.90;;;;;;5045292;28;20503;-75
2023/06/07 03:28:31;;;;;;;6.87;5.67;;;16.90;99.90;;;;;;5046328;28;20454;-75
2023/06/07 03:30:58;;;;;;;7.20;5.93;;;16.90;99.90;;;;;;5045774;28;20459;-75
2023/06/07 03:33:25;;;;;;;7.37;6.40;;;16.90;99.90;;;;;;5046922;28;20833;-75
2023/06/07 03:35:51;;;;;;;6.13;5.50;;;16.90;99.90;;;;;;5039669;28;20516;-75
2023/06/07 03:38:18;;;;;;;7.90;5.60;;;16.90;99.90;;;;;;5041848;28;20469;-75
2023/06/07 03:40:46;;;;;;;6.90;5.77;;;16.90;99.90;;;;;;5041218;28;21023;-75
2023/06/07 03:43:12;;;;;;;11.90;6.37;;;16.90;99.90;;;;;;5047546;28;20480;-75
2023/06/07 03:45:39;;;;;;;6.60;6.00;;;16.90;99.90;;;;;;5045089;28;20453;-75
2023/06/07 03:48:06;;;;;;;7.60;6.37;;;16.90;99.90;;;;;;5042495;28;21082;-75
2023/06/07 03:50:32;;;;;;;12.33;6.07;;;16.90;99.90;;;;;;5034745;28;20494;-75
2023/06/07 03:52:59;;;;;;;9.13;5.90;;;16.90;99.90;;;;;;5044350;28;20867;-75
2023/06/07 03:55:26;;;;;;;12.90;6.60;;;16.90;99.90;;;;;;5041067;28;20518;-75
2023/06/07 03:57:54;;;;;;;9.20;6.30;;;16.90;99.90;;;;;;5039795;28;20456;-75
2023/06/07 04:00:20;;;;;;;12.17;6.40;;;16.90;99.90;;;;;;5040397;28;20515;-75
2023/06/07 04:02:47;;;;;;;8.87;5.97;;;16.90;99.90;;;;;;5043721;28;20550;-74
2023/06/07 04:05:15;;;;;;;11.23;7.23;;;16.80;99.90;;;;;;5038270;28;20466;-75
2023/06/07 04:07:41;;;;;;;10.23;6.73;;;16.80;99.90;;;;;;5043336;28;20971;-77
2023/06/07 04:10:08;;;;;;;11.37;7.00;;;16.80;99.90;;;;;;5044308;28;20431;-75
2023/06/07 04:12:35;;;;;;;14.70;7.73;;;16.80;99.90;;;;;;5046800;28;20534;-75
2023/06/07 04:15:03;;;;;;;14.80;7.50;;;16.80;99.90;;;;;;5039699;28;20704;-74
2023/06/07 04:17:30;;;;;;;11.20;7.23;;;16.80;99.90;;;;;;5035565;28;20461;-75
2023/06/07 04:19:57;;;;;;;15.60;7.97;;;16.80;99.90;;;;;;5046782;28;20916;-76
2023/06/07 04:22:24;;;;;;;9.60;7.83;;;16.80;99.90;;;;;;5039633;28;20991;-76
2023/06/07 04:24:51;;;;;;;11.80;7.23;;;16.90;99.90;;;;;;5045300;28;20518;-75
2023/06/07 04:27:18;;;;;;;11.17;7.00;;;16.90;99.90;;;;;;5045174;28;20551;-76
2023/06/07 04:29:48;;;;;;;9.07;7.23;;;16.90;99.90;;;;;;5034601;28;20457;-76
2023/06/07 04:32:18;;;;;;;10.27;7.30;;;16.90;99.90;;;;;;5038073;28;20496;-76
2023/06/07 04:34:45;;;;;;;12.47;7.40;;;17.00;99.90;;;;;;5041876;28;20892;-76
2023/06/07 04:37:12;;;;;;;13.37;8.30;;;17.00;99.90;;;;;;5041510;28;20438;-77
2023/06/07 04:39:40;;;;;;;10.90;7.50;;;17.00;99.90;;;;;;5041392;28;20996;-77
2023/06/07 04:42:09;;;;;;;14.30;7.47;;;17.00;99.90;;;;;;5032554;28;21020;-76
2023/06/07 04:44:37;;;;;;;9.07;8.00;;;17.00;99.90;;;;;;5043195;28;20535;-76
2023/06/07 04:47:05;;;;;;;11.53;7.50;;;17.00;99.90;;;;;;5047997;28;20461;-76
2023/06/07 04:49:34;;;;;;;16.70;7.03;;;17.00;99.90;;;;;;5041803;28;20510;-76
2023/06/07 04:52:02;;;;;;;7.53;6.27;;;17.00;99.90;;;;;;5048998;28;20530;-75
2023/06/07 04:54:29;;;;;;;10.23;7.23;;;17.00;99.90;;;;;;5051695;28;20563;-76
2023/06/07 04:56:56;;;;;;;10.93;6.27;;;17.00;99.90;;;;;;5038030;28;20459;-71
2023/06/07 04:59:24;;;;;;;10.07;7.37;;;17.00;99.90;;;;;;5038720;28;20464;-73
2023/06/07 05:01:51;;;;;;;12.03;6.77;;;17.10;99.90;;;;;;5049146;28;20580;-70
2023/06/07 05:04:18;;;;;;;7.67;5.43;;;17.30;99.90;;;;;;5047264;28;20465;-72
2023/06/07 05:06:46;;;;;;;10.30;6.90;;;17.30;99.90;;;;;;5044415;28;20487;-72
2023/06/07 05:09:13;;;;;;;9.90;6.50;;;17.40;99.90;;;;;;5044060;28;20419;-73
2023/06/07 05:11:40;;;;;;;17.97;7.30;;;17.40;99.90;;;;;;5048119;28;20848;-74
2023/06/07 05:14:06;;;;;;;8.90;7.27;;;17.40;99.90;;;;;;5052914;28;20860;-74
2023/06/07 05:16:33;;;;;;;13.90;8.27;;;17.40;99.90;;;;;;5059840;28;20460;-74
2023/06/07 05:19:00;;;;;;;12.60;6.93;;;17.40;99.90;;;;;;5053008;28;20863;-74
2023/06/07 05:21:27;;;;;;;9.23;7.23;;;17.50;99.90;;;;;;5051260;28;20495;-74
2023/06/07 05:23:55;;;;;;;10.77;7.10;;;17.50;99.90;;;;;;5051251;28;20453;-74
2023/06/07 05:26:22;;;;;;;10.60;6.80;;;17.60;99.90;;;;;;5052885;28;20459;-73
2023/06/07 05:28:48;;;;;;;9.43;6.93;;;17.60;99.90;;;;;;5052718;28;20551;-74
2023/06/07 05:31:15;;;;;;;7.87;6.60;;;17.70;99.90;;;;;;5052658;28;20525;-74
2023/06/07 05:33:42;;;;;;;10.07;6.90;;;17.70;99.90;;;;;;5068933;28;20446;-73
2023/06/07 05:36:10;;;;;;;14.90;7.13;;;17.70;99.90;;;;;;5052781;28;20463;-74
2023/06/07 05:38:37;;;;;;;11.20;6.90;;;17.70;99.90;;;;;;5052749;28;20489;-74
2023/06/07 05:41:05;;;;;;;13.63;7.00;;;17.70;99.90;;;;;;5052741;28;20464;-74
2023/06/07 05:43:31;;;;;;;13.50;7.83;;;17.70;99.90;;;;;;5052290;28;20543;-74
2023/06/07 05:45:58;;;;;;;12.60;6.87;;;17.70;99.90;;;;;;5052206;28;20882;-74
2023/06/07 05:48:24;;;;;;;9.73;6.60;;;17.80;99.90;;;;;;5060798;28;20430;-74
2023/06/07 05:50:52;;;;;;;12.97;7.23;;;17.80;99.90;;;;;;5052263;28;20456;-74
2023/06/07 05:53:19;;;;;;;16.10;7.87;;;17.80;99.90;;;;;;5051500;28;20445;-74
2023/06/07 05:55:47;;;;;;;10.70;7.03;;;17.80;99.90;;;;;;5052197;28;20423;-74
2023/06/07 05:58:15;;;;;;;23.83;7.03;;;17.90;99.90;;;;;;5052190;28;20459;-74
2023/06/07 06:00:44;;;;;;;11.83;7.60;;;18.00;99.90;;;;;;5051632;28;20477;-74
2023/06/07 06:03:11;;;;;;;12.13;7.57;;;18.20;99.90;;;;;;5060159;28;20493;-74
2023/06/07 06:05:38;;;;;;;15.53;7.50;;;18.40;99.90;;;;;;5052027;28;20431;-74
2023/06/07 06:08:04;;;;;;;11.27;7.23;;;18.60;99.90;;;;;;5052473;28;20514;-74
2023/06/07 06:10:31;;;;;;;10.80;7.27;;;18.80;99.90;;;;;;5052196;28;20427;-74
2023/06/07 06:12:58;;;;;;;16.27;8.03;;;18.90;99.90;;;;;;5051737;28;20447;-74
2023/06/07 06:15:26;;;;;;;9.90;7.20;;;19.20;99.90;;;;;;5051822;28;20431;-74
2023/06/07 06:17:54;;;;;;;10.60;6.60;;;19.50;99.90;;;;;;5051579;28;20781;-74
2023/06/07 06:20:21;;;;;;;11.70;7.43;;;19.90;99.90;;;;;;5052173;28;20427;-74
2023/06/07 06:22:47;;;;;;;14.33;7.00;;;20.30;99.90;;;;;;5052016;28;20883;-75
2023/06/07 06:25:14;;;;;;;7.23;6.27;;;20.60;99.90;;;;;;5052451;28;20510;-74
2023/06/07 06:27:41;;;;;;;10.40;6.50;;;20.80;99.90;;;;;;5052126;28;20460;-74
2023/06/07 06:30:09;;;;;;;13.23;7.47;;;21.00;99.90;;;;;;5057051;28;20459;-74
2023/06/07 06:32:37;;;;;;;9.27;6.50;;;21.20;99.90;;;;;;5055228;28;20500;-74
2023/06/07 06:35:04;;;;;;;10.70;6.70;;;21.20;99.90;;;;;;5052088;28;20721;-74
2023/06/07 06:37:31;;;;;;;12.23;6.70;;;21.20;99.90;;;;;;5051843;28;20444;-75
2023/06/07 06:39:57;;;;;;;14.20;7.13;;;21.40;99.90;;;;;;5051935;28;20479;-74
2023/06/07 06:42:24;;;;;;;10.87;7.23;;;21.40;99.90;;;;;;5051171;28;20492;-74
2023/06/07 06:44:51;;;;;;;12.47;7.17;;;21.20;99.90;;;;;;5051485;28;20481;-74
2023/06/07 06:47:17;;;;;;;11.60;6.50;;;21.00;99.90;;;;;;5051399;28;20431;-74
2023/06/07 06:49:45;;;;;;;10.67;7.30;;;20.80;99.90;;;;;;5050858;28;20464;-74
2023/06/07 06:52:12;;;;;;;8.33;7.00;;;20.70;99.90;;;;;;5050853;28;20469;-74
2023/06/07 06:54:39;;;;;;;7.70;6.70;;;20.80;99.90;;;;;;5051303;28;20431;-74
2023/06/07 06:57:08;;;;;;;11.90;7.67;;;21.00;99.90;;;;;;5050872;28;20916;-74
2023/06/07 06:59:35;;;;;;;16.17;7.03;;;21.20;99.90;;;;;;5051034;28;20456;-74
2023/06/07 07:02:02;;;;;;;12.60;7.87;;;21.50;99.90;;;;;;5058962;28;20495;-74
2023/06/07 07:04:29;;;;;;;10.70;7.53;;;21.70;99.90;;;;;;5051120;28;20452;-74
2023/06/07 07:06:57;;;;;;;16.30;7.40;;;21.90;99.90;;;;;;5050928;28;20460;-74
2023/06/07 07:09:23;;;;;;;8.10;6.50;;;22.10;99.90;;;;;;5051105;28;20452;-74
2023/06/07 07:11:50;;;;;;;8.90;7.30;;;22.30;99.90;;;;;;5050513;28;20473;-74
2023/06/07 07:14:16;;;;;;;12.30;6.60;;;22.40;99.90;;;;;;5050620;28;21022;-74
2023/06/07 07:16:43;;;;;;;8.53;6.50;;;22.60;99.90;;;;;;5050582;28;20506;-74
2023/06/07 07:19:10;;;;;;;12.20;7.10;;;22.70;99.90;;;;;;5050724;28;20445;-74
2023/06/07 07:21:37;;;;;;;6.97;6.27;;;22.80;99.90;;;;;;5050433;28;20460;-74
2023/06/07 07:24:06;;;;;;;8.87;6.77;;;22.90;99.90;;;;;;5042427;28;20491;-74
2023/06/07 07:26:33;;;;;;;11.33;6.40;;;22.90;99.90;;;;;;5050766;28;20510;-74
2023/06/07 07:28:59;;;;;;;9.23;6.40;;;23.20;99.90;;;;;;5058925;28;20578;-72
2023/06/07 07:31:26;;;;;;;10.53;7.20;;;23.40;99.90;;;;;;5050042;28;21035;-72
2023/06/07 07:33:53;;;;;;;13.73;6.93;;;23.40;99.90;;;;;;5050384;28;20496;-72
2023/06/07 07:36:21;;;;;;;17.40;6.40;;;23.50;99.90;;;;;;5050369;28;20878;-72
2023/06/07 07:38:48;;;;;;;7.67;6.20;;;23.40;99.90;;;;;;5050311;28;20526;-72
2023/06/07 07:41:16;;;;;;;12.60;6.60;;;23.30;99.90;;;;;;5050146;28;20463;-72
2023/06/07 07:43:43;;;;;;;11.33;6.30;;;23.50;99.90;;;;;;5049885;28;20488;-72
2023/06/07 07:46:10;;;;;;;8.97;6.70;;;23.60;99.90;;;;;;5050163;28;20456;-72
2023/06/07 07:48:36;;;;;;;14.93;6.00;;;23.80;99.90;;;;;;5050409;28;20498;-72
2023/06/07 07:51:04;;;;;;;10.00;6.10;;;23.90;99.90;;;;;;5050319;28;20506;-72
2023/06/07 07:53:31;;;;;;;7.77;6.53;;;24.00;99.90;;;;;;5050704;28;20475;-72
2023/06/07 07:55:57;;;;;;;13.30;6.13;;;23.80;99.90;;;;;;5050394;28;20453;-72
2023/06/07 07:58:26;;;;;;;8.13;6.30;;;23.90;99.90;;;;;;5050347;28;20510;-72
2023/06/07 08:00:52;;;;;;;13.07;6.33;;;24.10;99.90;;;;;;5050092;28;20449;-72
2023/06/07 08:03:19;;;;;;;10.40;5.90;;;24.20;99.90;;;;;;5050432;28;20545;-72
2023/06/07 08:05:46;;;;;;;10.93;6.70;;;24.40;99.90;;;;;;5050220;28;20460;-72
2023/06/07 08:08:12;;;;;;;10.07;6.37;;;24.50;99.90;;;;;;5050205;28;20449;-72
2023/06/07 08:10:39;;;;;;;7.37;6.63;;;24.60;99.90;;;;;;5050166;28;20466;-72
2023/06/07 08:13:06;;;;;;;13.10;6.40;;;24.80;99.90;;;;;;5049918;28;20538;-72
2023/06/07 08:15:34;;;;;;;9.90;6.30;;;24.90;99.90;;;;;;5049895;28;20445;-72
2023/06/07 08:18:00;;;;;;;7.00;6.30;;;25.00;99.90;;;;;;5053322;28;20451;-72
2023/06/07 08:20:27;;;;;;;10.60;5.77;;;25.00;99.90;;;;;;5054167;28;20710;-73
2023/06/07 08:22:53;;;;;;;6.83;6.17;;;25.10;99.90;;;;;;5053874;28;20924;-72
2023/06/07 08:25:20;;;;;;;16.00;6.60;;;25.10;99.90;;;;;;5053474;28;20455;-72
2023/06/07 08:27:47;;;;;;;16.83;6.63;;;25.30;99.90;;;;;;5054264;28;20452;-72
2023/06/07 08:30:14;;;;;;;15.33;6.73;;;25.50;99.90;;;;;;5054085;28;20933;-72
2023/06/07 08:32:42;;;;;;;10.37;6.20;;;25.60;99.90;;;;;;5053823;28;20526;-72
2023/06/07 08:35:11;;;;;;;10.37;6.10;;;25.80;99.90;;;;;;5046012;28;20460;-72
2023/06/07 08:37:38;;;;;;;9.97;6.43;;;25.90;99.90;;;;;;5053578;28;20986;-72
2023/06/07 08:40:06;;;;;;;13.00;7.10;;;25.80;99.90;;;;;;5053913;28;20455;-72
2023/06/07 08:42:33;;;;;;;7.60;6.43;;;25.90;99.90;;;;;;5054407;28;20527;-72
2023/06/07 08:45:00;;;;;;;7.97;5.87;;;26.10;99.90;;;;;;5053676;28;20452;-72
2023/06/07 08:47:29;;;;;;;8.07;6.13;;;26.20;99.90;;;;;;5053658;28;20456;-72
2023/06/07 08:49:58;;;;;;;8.73;6.20;;;26.50;99.90;;;;;;5053605;28;20578;-72
2023/06/07 08:52:25;;;;;;;8.53;6.20;;;26.60;99.90;;;;;;5053189;28;20480;-72
2023/06/07 08:54:55;;;;;;;10.73;6.40;;;26.50;99.90;;;;;;5053376;28;20452;-72
2023/06/07 08:57:22;;;;;;;8.10;6.03;;;26.30;99.90;;;;;;5053418;28;20933;-74
2023/06/07 08:59:49;;;;;;;9.13;6.70;;;26.20;99.90;;;;;;5053419;28;20510;-72
2023/06/07 09:02:16;;;;;;;6.70;6.00;;;26.20;99.90;;;;;;5053270;28;20498;-74
2023/06/07 09:04:43;;;;;;;8.80;6.10;;;26.20;99.90;;;;;;5052867;28;20462;-75
2023/06/07 09:07:11;;;;;;;8.53;5.80;;;26.20;99.90;;;;;;5045290;28;20449;-74
2023/06/07 09:09:41;;;;;;;8.27;5.80;;;26.30;99.90;;;;;;5052847;28;20486;-72
2023/06/07 09:12:08;;;;;;;8.90;6.57;;;26.00;99.90;;;;;;5052785;28;21003;-72
2023/06/07 09:14:35;;;;;;;8.63;5.83;;;25.90;99.90;;;;;;5052939;28;20449;-72
2023/06/07 09:17:02;;;;;;;6.60;6.00;;;25.50;99.90;;;;;;5052892;28;20933;-72
2023/06/07 09:19:34;;;;;;;12.23;7.07;;;25.40;99.90;;;;;;5053006;28;20465;-72
2023/06/07 09:22:01;;;;;;;11.37;6.50;;;25.30;99.90;;;;;;5052882;28;20468;-72
2023/06/07 09:24:30;;;;;;;10.00;6.10;;;25.30;99.90;;;;;;5052858;28;20492;-72
2023/06/07 09:26:57;;;;;;;11.13;6.43;;;25.80;99.90;;;;;;5052545;28;20570;-72
2023/06/07 09:29:24;;;;;;;6.80;5.90;;;26.40;99.90;;;;;;5051038;28;20619;-72
2023/06/07 09:31:50;;;;;;;7.17;5.90;;;26.80;99.90;;;;;;5052643;28;20484;-72
2023/06/07 09:34:22;;;;;;;10.63;6.40;;;26.80;99.90;;;;;;5052328;28;20902;-72
2023/06/07 09:36:50;;;;;;;8.77;5.40;;;26.70;99.90;;;;;;5052677;28;20448;-72
2023/06/07 09:39:20;;;;;;;10.03;5.60;;;26.60;99.90;;;;;;5052570;28;20801;-72
2023/06/07 09:41:48;;;;;;;7.13;6.23;;;26.80;99.90;;;;;;5052220;28;20552;-72
2023/06/07 09:44:21;;;;;;;8.87;6.20;;;26.40;99.90;;;;;;5052369;28;20872;-72
2023/06/07 09:46:48;;;;;;;9.10;7.10;;;26.00;99.90;;;;;;5052313;28;20479;-72
2023/06/07 09:49:23;;;;;;;9.13;6.83;;;25.80;99.90;;;;;;5052358;28;20452;-72
2023/06/07 09:51:52;;;;;;;7.03;6.23;;;25.70;99.90;;;;;;5051891;28;20521;-72
2023/06/07 09:54:19;;;;;;;10.83;7.10;;;25.80;99.90;;;;;;5052043;28;20867;-72
2023/06/07 09:56:46;;;;;;;12.03;7.00;;;25.80;99.90;;;;;;5052026;28;20452;-72
2023/06/07 09:59:16;;;;;;;9.03;7.10;;;25.70;99.90;;;;;;5052360;28;20506;-72
2023/06/07 10:01:45;;;;;;;10.27;6.60;;;25.60;99.90;;;;;;5051995;28;20980;-72
2023/06/07 10:04:13;;;;;;;9.27;7.90;;;25.60;99.90;;;;;;5060342;28;20488;-73
2023/06/07 10:06:41;;;;;;;8.00;7.20;;;25.60;99.90;;;;;;5051937;28;20514;-73
2023/06/07 10:09:09;;;;;;;8.60;7.63;;;25.60;99.90;;;;;;5051653;28;20448;-72
2023/06/07 10:11:37;;;;;;;10.37;7.60;;;25.40;99.90;;;;;;5060047;28;20452;-73
2023/06/07 10:14:07;;;;;;;10.70;7.37;;;25.20;99.90;;;;;;5052047;28;20461;-73
2023/06/07 10:16:37;;;;;;;10.37;8.00;;;24.90;99.90;;;;;;5051768;28;20929;-73
2023/06/07 10:19:16;;;;;;;11.20;7.50;;;24.70;99.90;;;;;;5051869;28;20453;-72
2023/06/07 10:21:45;;;;;;;10.50;7.90;;;24.90;99.90;;;;;;5051553;28;20560;-73
2023/06/07 10:24:17;;;;;;;9.17;7.20;;;24.90;99.90;;;;;;5059694;28;20488;-73
2023/06/07 10:26:50;;;;;;;10.60;8.00;;;24.80;99.90;;;;;;5051528;28;20937;-73
2023/06/07 10:29:22;;;;;;;11.80;6.80;;;24.70;99.90;;;;;;5051652;28;20449;-73
2023/06/07 10:32:01;;;;;;;11.83;7.70;;;24.60;99.90;;;;;;5051353;28;20499;-73
2023/06/07 10:34:31;;;;;;;8.03;7.23;;;24.50;99.90;;;;;;5051695;28;20964;-73
2023/06/07 10:37:00;;;;;;;9.60;7.10;;;24.30;99.90;;;;;;5051377;28;20452;-73
2023/06/07 10:39:27;;;;;;;8.97;7.67;;;24.30;99.90;;;;;;5051564;28;20507;-73
2023/06/07 10:41:54;;;;;;;8.67;7.73;;;24.20;99.90;;;;;;5050691;28;20468;-73
2023/06/07 10:44:21;;;;;;;10.27;8.17;;;24.20;99.90;;;;;;5051546;28;20515;-73
2023/06/07 10:46:48;;;;;;;8.60;7.70;;;24.00;99.90;;;;;;5051101;28;20948;-73
2023/06/07 10:49:36;;;;;;;11.10;7.43;;;23.90;99.90;;;;;;5043305;28;20448;-73
2023/06/07 10:52:04;;;;;;;11.27;7.80;;;23.90;99.90;;;;;;5050762;28;20976;-74
2023/06/07 10:54:32;;;;;;;9.93;7.70;;;24.20;99.90;;;;;;5051251;28;20448;-73
2023/06/07 10:57:00;;;;;;;9.53;7.63;;;24.50;99.90;;;;;;5051196;28;20452;-73
2023/06/07 10:59:27;;;;;;;12.00;7.53;;;24.90;99.90;;;;;;5051177;28;20885;-73
2023/06/07 11:01:55;;;;;;;10.17;7.73;;;25.20;99.90;;;;;;5050758;28;20551;-73
2023/06/07 11:04:50;;;;;;;8.73;7.80;;;25.50;99.90;;;;;;5051092;28;20480;-73
2023/06/07 11:07:19;;;;;;;13.63;7.77;;;25.50;99.90;;;;;;5043606;28;20448;-73
2023/06/07 11:09:46;;;;;;;8.03;7.10;;;25.70;99.90;;;;;;5050816;28;20822;-73
2023/06/07 11:12:46;;;;;;;9.87;7.23;;;25.80;99.90;;;;;;5050574;28;20468;-73
2023/06/07 11:15:25;;;;;;;8.13;7.33;;;25.80;99.90;;;;;;5050420;28;20964;-73
2023/06/07 11:17:53;;;;;;;8.73;7.13;;;25.90;99.90;;;;;;5050936;28;20543;-73
2023/06/07 11:20:52;;;;;;;9.27;6.67;;;26.30;99.90;;;;;;5055004;28;20955;-73
2023/06/07 11:23:29;;;;;;;7.67;6.50;;;26.60;99.90;;;;;;5042773;28;20665;-73
2023/06/07 11:25:58;;;;;;;8.27;6.13;;;26.90;99.90;;;;;;5050451;28;20945;-73
2023/06/07 11:28:27;;;;;;;7.73;6.97;;;27.30;99.90;;;;;;5050657;28;20457;-73
2023/06/07 11:30:54;;;;;;;7.33;6.40;;;27.50;99.90;;;;;;5050293;28;20548;-73
2023/06/07 11:33:22;;;;;;;7.30;6.70;;;27.80;99.90;;;;;;5050299;28;20563;-73
2023/06/07 11:35:51;;;;;;;6.50;5.83;;;28.00;99.90;;;;;;5050138;28;20573;-73
2023/06/07 11:38:18;;;;;;;7.80;6.30;;;28.40;99.90;;;;;;5050567;28;20510;-73
2023/06/07 11:40:46;;;;;;;6.80;6.10;;;28.60;99.90;;;;;;5050217;28;20501;-73
2023/06/07 11:43:13;;;;;;;6.20;5.50;;;28.50;99.90;;;;;;5050262;28;20468;-73
2023/06/07 11:45:43;;;;;;;7.97;6.03;;;28.30;99.90;;;;;;5050466;28;20456;-73
2023/06/07 11:48:10;;;;;;;7.43;6.00;;;27.90;99.90;;;;;;5058462;28;20456;-73
2023/06/07 11:50:37;;;;;;;6.73;6.13;;;27.40;99.90;;;;;;5050124;28;20461;-73
2023/06/07 11:53:08;;;;;;;7.53;6.30;;;26.90;99.90;;;;;;5049823;28;20562;-73
2023/06/07 11:55:35;;;;;;;7.50;6.40;;;26.50;99.90;;;;;;5050404;28;21014;-73
2023/06/07 11:58:02;;;;;;;8.17;5.83;;;26.20;99.90;;;;;;5058341;28;20464;-73
2023/06/07 12:00:32;;;;;;;6.97;6.30;;;26.40;99.90;;;;;;5050188;28;20807;-73
2023/06/07 12:02:59;;;;;;;7.90;6.43;;;26.60;99.90;;;;;;5049624;28;20488;-73
2023/06/07 12:05:30;;;;;;;6.47;5.93;;;26.80;99.90;;;;;;5050400;28;20488;-73
2023/06/07 12:07:59;;;;;;;6.87;6.17;;;27.00;99.90;;;;;;5050032;28;20452;-73
2023/06/07 12:10:28;;;;;;;9.97;6.83;;;27.00;99.90;;;;;;5050262;28;20457;-73
2023/06/07 12:13:09;;;;;;;6.47;5.87;;;27.00;99.90;;;;;;5049759;28;20479;-73
2023/06/07 12:15:41;;;;;;;8.23;5.90;;;27.40;99.90;;;;;;5050152;28;20807;-73
2023/06/07 12:18:10;;;;;;;9.00;6.00;;;27.80;99.90;;;;;;5050095;28;20448;-74
2023/06/07 12:20:37;;;;;;;7.50;5.67;;;28.20;99.90;;;;;;5050027;28;20510;-73
2023/06/07 12:23:04;;;;;;;9.10;5.40;;;28.60;99.90;;;;;;5049326;28;20504;-73
2023/06/07 12:25:33;;;;;;;8.80;5.20;;;28.90;99.90;;;;;;5050261;28;20545;-73
2023/06/07 12:28:04;;;;;;;5.90;5.37;;;29.40;99.90;;;;;;5050076;28;20543;-74
2023/06/07 12:30:35;;;;;;;9.30;5.13;;;29.60;99.90;;;;;;5050142;28;20448;-74
2023/06/07 12:33:02;;;;;;;8.43;5.93;;;29.30;99.90;;;;;;5049861;28;20839;-73
2023/06/07 12:35:39;;;;;;;5.40;5.00;;;29.10;99.90;;;;;;5049886;28;20454;-73
2023/06/07 12:38:06;;;;;;;6.03;5.53;;;28.30;99.90;;;;;;5049750;28;20503;-73
2023/06/07 12:40:34;;;;;;;5.83;5.30;;;27.60;99.90;;;;;;5049959;28;20506;-73
2023/06/07 12:43:01;;;;;;;6.90;5.40;;;27.60;99.90;;;;;;5049687;28;20469;-73
2023/06/07 12:45:27;;;;;;;6.10;5.50;;;27.80;99.90;;;;;;5050158;28;20488;-73
2023/06/07 12:47:54;;;;;;;5.87;5.37;;;28.50;99.90;;;;;;5049716;28;20445;-73